createdAt,value
2022-09-15T00:02:00.232Z,99338.69
2022-09-15T00:05:16.014Z,99316.97
2022-09-15T00:08:32.089Z,99312.09
2022-09-15T00:11:44.135Z,99281.62
2022-09-15T00:15:00.080Z,99277.00
2022-09-15T00:18:09.167Z,99221.38
2022-09-15T00:21:23.103Z,99248.09
2022-09-15T00:24:31.828Z,99237.94
2022-09-15T00:27:41.053Z,99270.41
2022-09-15T00:30:59.134Z,99296.56
2022-09-15T00:34:19.075Z,99300.94
2022-09-15T00:37:21.370Z,99304.28
2022-09-15T00:40:36.060Z,99322.31
2022-09-15T00:44:01.262Z,99333.81
2022-09-15T00:47:19.679Z,99350.22
2022-09-15T00:50:29.308Z,99372.22
2022-09-15T00:53:45.095Z,99377.84
2022-09-15T00:56:52.076Z,99380.56
2022-09-15T01:00:12.053Z,99376.19
2022-09-15T01:03:21.122Z,99375.34
2022-09-15T01:06:36.207Z,99366.84
2022-09-15T01:09:59.177Z,99372.19
2022-09-15T01:13:12.175Z,99381.16
2022-09-15T01:16:40.032Z,99384.94
2022-09-15T01:20:27.087Z,99367.38
2022-09-15T01:23:55.116Z,99364.53
2022-09-15T01:27:43.837Z,99357.56
2022-09-15T01:31:11.183Z,99365.03
2022-09-15T01:34:24.152Z,99370.16
2022-09-15T01:37:47.119Z,99361.13
2022-09-15T01:40:55.639Z,99355.91
2022-09-15T01:44:22.162Z,99358.16
2022-09-15T01:47:41.132Z,99365.25
2022-09-15T01:50:48.412Z,99364.44
2022-09-15T01:54:08.132Z,99368.00
2022-09-15T01:57:10.098Z,99369.31
2022-09-15T02:00:25.130Z,99358.41
2022-09-15T02:03:51.180Z,99377.63
2022-09-15T02:07:08.055Z,99361.72
2022-09-15T02:10:32.114Z,99384.50
2022-09-15T02:13:57.987Z,99373.25
2022-09-15T02:17:09.471Z,99381.44
2022-09-15T02:20:25.139Z,99382.72
2022-09-15T02:23:41.238Z,99382.66
2022-09-15T02:27:00.208Z,99387.75
2022-09-15T02:30:12.308Z,99386.34
2022-09-15T02:33:26.161Z,99380.88
2022-09-15T02:36:42.139Z,99378.41
2022-09-15T02:39:55.425Z,99379.22
2022-09-15T02:43:08.131Z,99386.59
2022-09-15T02:46:28.160Z,99385.75
2022-09-15T02:49:37.225Z,99377.00
2022-09-15T02:52:46.703Z,99356.50
2022-09-15T02:56:01.159Z,99373.06
2022-09-15T02:59:03.640Z,99375.09
2022-09-15T03:02:19.194Z,99377.00
2022-09-15T03:05:30.081Z,99369.06
2022-09-15T03:08:39.153Z,99385.75
2022-09-15T03:11:48.032Z,99375.91
2022-09-15T03:14:57.230Z,99374.84
2022-09-15T03:18:12.171Z,99381.94
2022-09-15T03:21:28.223Z,99377.31
2022-09-15T03:24:30.259Z,99378.41
2022-09-15T03:27:46.186Z,99378.41
2022-09-15T03:30:55.409Z,99383.03
2022-09-15T03:34:04.206Z,99381.69
2022-09-15T03:37:13.067Z,99376.50
2022-09-15T03:40:29.249Z,99375.66
2022-09-15T03:43:39.187Z,99372.34
2022-09-15T03:46:54.175Z,99373.06
2022-09-15T03:50:03.212Z,99369.19
2022-09-15T03:53:19.248Z,99370.16
2022-09-15T03:56:37.284Z,99372.28
2022-09-15T03:59:39.319Z,99376.09
2022-09-15T04:02:55.182Z,99392.72
2022-09-15T04:06:04.259Z,99388.09
2022-09-15T04:09:13.192Z,99386.19
2022-09-15T04:12:28.203Z,99384.88
2022-09-15T04:15:44.224Z,99386.31
2022-09-15T04:18:53.239Z,99387.97
2022-09-15T04:22:02.155Z,99390.44
2022-09-15T04:25:11.272Z,99391.50
2022-09-15T04:28:20.460Z,99389.63
2022-09-15T04:31:35.248Z,99377.25
2022-09-15T04:34:44.219Z,99382.88
2022-09-15T04:37:54.347Z,99413.09
2022-09-15T04:41:10.211Z,99411.44
2022-09-15T04:44:18.651Z,99425.44
2022-09-15T04:47:33.219Z,99422.81
2022-09-15T04:50:35.357Z,99420.91
2022-09-15T04:53:51.267Z,99421.75
2022-09-15T04:57:06.350Z,99420.41
2022-09-15T05:00:17.225Z,99401.88
2022-09-15T05:03:35.464Z,99388.75
2022-09-15T05:06:51.271Z,99397.38
2022-09-15T05:09:53.428Z,99395.22
2022-09-15T05:13:09.271Z,99404.00
2022-09-15T05:16:22.005Z,99412.75
2022-09-15T05:19:31.352Z,99417.41
2022-09-15T05:22:46.260Z,99414.47
2022-09-15T05:26:05.250Z,99436.75
2022-09-15T05:29:20.495Z,99454.66
2022-09-15T05:32:36.386Z,99451.94
2022-09-15T05:35:38.611Z,99461.91
2022-09-15T05:38:54.313Z,99474.41
2022-09-15T05:42:03.130Z,99473.56
2022-09-15T05:45:25.258Z,99471.41
2022-09-15T05:48:41.357Z,99460.50
2022-09-15T05:51:50.311Z,99466.53
2022-09-15T05:55:06.276Z,99463.44
2022-09-15T05:58:08.707Z,99454.97
2022-09-15T06:01:27.534Z,99454.38
2022-09-15T06:04:36.423Z,99433.78
2022-09-15T06:07:46.355Z,99451.75
2022-09-15T06:11:01.272Z,99452.66
2022-09-15T06:14:10.308Z,99469.41
2022-09-15T06:17:26.268Z,99466.41
2022-09-15T06:20:42.332Z,99463.28
2022-09-15T06:23:50.047Z,99467.00
2022-09-15T06:27:05.310Z,99462.19
2022-09-15T06:30:16.101Z,99462.03
2022-09-15T06:33:24.390Z,99477.94
2022-09-15T06:36:33.560Z,99487.88
2022-09-15T06:39:42.313Z,99476.03
2022-09-15T06:42:57.566Z,99477.19
2022-09-15T06:46:16.363Z,99484.44
2022-09-15T06:49:18.830Z,99480.69
2022-09-15T06:55:52.535Z,99480.88
2022-09-15T06:59:08.355Z,99491.44
2022-09-15T07:02:10.681Z,99505.50
2022-09-15T07:05:26.552Z,99503.34
2022-09-15T07:08:42.482Z,99498.19
2022-09-15T07:11:58.344Z,99497.72
2022-09-15T07:15:00.557Z,99511.06
2022-09-15T07:18:15.353Z,99518.28
2022-09-15T07:21:20.130Z,99512.34
2022-09-15T07:24:36.352Z,99510.00
2022-09-15T07:27:45.347Z,99520.16
2022-09-15T07:30:54.423Z,99516.81
2022-09-15T07:34:03.628Z,99520.84
2022-09-15T07:37:12.777Z,99522.19
2022-09-15T07:40:21.361Z,99525.75
2022-09-15T07:43:37.378Z,99527.87
2022-09-15T07:46:54.419Z,99529.53
2022-09-15T07:50:03.342Z,99520.50
2022-09-15T07:53:12.312Z,99524.47
2022-09-15T07:56:30.349Z,99524.50
2022-09-15T07:59:32.537Z,99519.38
2022-09-15T08:02:54.457Z,99527.13
2022-09-15T08:06:03.719Z,99528.78
2022-09-15T08:09:12.496Z,99545.31
2022-09-15T08:12:21.407Z,99516.97
2022-09-15T08:15:30.368Z,99524.41
2022-09-15T08:18:42.959Z,99526.91
2022-09-15T08:21:58.384Z,99498.94
2022-09-15T08:25:14.387Z,99527.78
2022-09-15T08:28:23.537Z,99523.22
2022-09-15T08:31:32.507Z,99530.09
2022-09-15T08:34:41.603Z,99527.91
2022-09-15T08:37:50.383Z,99524.09
2022-09-15T08:41:05.360Z,99519.19
2022-09-15T08:44:52.464Z,99507.66
2022-09-15T08:47:58.630Z,99500.75
2022-09-15T08:51:22.402Z,99515.91
2022-09-15T08:54:40.391Z,99519.22
2022-09-15T08:57:49.404Z,99506.00
2022-09-15T09:01:24.039Z,99503.56
2022-09-15T09:04:55.387Z,99501.41
2022-09-15T09:08:31.371Z,99495.63
2022-09-15T09:11:50.489Z,99481.09
2022-09-15T09:15:27.483Z,99476.97
2022-09-15T09:18:54.493Z,99476.41
2022-09-15T09:22:18.503Z,99475.03
2022-09-15T09:25:28.686Z,99467.06
2022-09-15T09:28:49.931Z,99462.63
2022-09-15T09:32:05.463Z,99449.41
2022-09-15T09:35:36.480Z,99457.12
2022-09-15T09:38:48.149Z,99462.34
2022-09-15T09:41:56.496Z,99466.44
2022-09-15T09:45:20.405Z,99465.59
2022-09-15T09:48:29.908Z,99470.75
2022-09-15T09:51:42.490Z,99461.00
2022-09-15T09:55:03.720Z,99455.56
2022-09-15T09:58:25.441Z,99449.84
2022-09-15T10:01:27.884Z,99439.25
2022-09-15T10:04:45.530Z,99433.72
2022-09-15T10:07:54.472Z,99431.50
2022-09-15T10:11:15.460Z,99418.66
2022-09-15T10:14:35.787Z,99411.31
2022-09-15T10:17:49.527Z,99412.81
2022-09-15T10:21:06.557Z,99407.41
2022-09-15T10:24:28.528Z,99404.09
2022-09-15T10:27:43.552Z,99384.44
2022-09-15T10:31:11.531Z,99368.22
2022-09-15T10:34:31.608Z,99367.16
2022-09-15T10:38:03.488Z,99368.19
2022-09-15T10:41:21.915Z,99364.12
2022-09-15T10:44:50.572Z,99377.44
2022-09-15T10:48:26.544Z,99375.72
2022-09-15T10:51:43.815Z,99377.22
2022-09-15T10:55:36.757Z,99375.28
2022-09-15T10:59:15.544Z,99373.97
2022-09-15T11:02:48.560Z,99369.91
2022-09-15T11:06:12.768Z,99375.50
2022-09-15T11:09:40.496Z,99375.75
2022-09-15T11:12:58.524Z,99375.06
2022-09-15T11:16:43.554Z,99369.37
2022-09-15T11:20:15.490Z,99369.44
2022-09-15T11:23:37.624Z,99375.06
2022-09-15T11:27:01.516Z,99380.12
2022-09-15T11:30:22.508Z,99370.28
2022-09-15T11:33:40.093Z,99373.22
2022-09-15T11:36:55.576Z,99371.16
2022-09-15T11:40:22.573Z,99367.34
2022-09-15T11:43:51.511Z,99353.87
2022-09-15T11:47:30.611Z,99339.81
2022-09-15T11:50:52.530Z,99323.88
2022-09-15T11:54:15.532Z,99312.28
2022-09-15T11:57:25.455Z,99297.00
2022-09-15T12:00:48.526Z,99291.72
2022-09-15T12:04:10.530Z,99282.69
2022-09-15T12:07:18.604Z,99295.62
2022-09-15T12:10:46.570Z,99298.56
2022-09-15T12:13:55.550Z,99311.06
2022-09-15T12:17:06.334Z,99315.56
2022-09-15T12:20:33.603Z,99323.06
2022-09-15T12:23:42.103Z,99307.16
2022-09-15T12:26:57.568Z,99307.72
2022-09-15T12:30:06.803Z,99294.22
2022-09-15T12:33:49.792Z,99296.41
2022-09-15T12:37:17.544Z,99293.38
2022-09-15T12:40:39.795Z,99289.53
2022-09-15T12:44:05.572Z,99271.84
2022-09-15T12:47:34.592Z,99282.28
2022-09-15T12:50:40.778Z,99272.44
2022-09-15T12:53:59.552Z,99244.66
2022-09-15T12:57:30.563Z,99237.84
2022-09-15T13:00:49.897Z,99255.50
2022-09-15T13:04:29.583Z,99268.94
2022-09-15T13:12:02.638Z,99315.91
2022-09-15T13:15:21.618Z,99457.63
2022-09-15T13:18:32.213Z,99336.53
2022-09-15T13:21:52.676Z,99328.63
2022-09-15T13:25:21.604Z,99309.09
2022-09-15T13:28:40.607Z,99308.50
2022-09-15T13:32:02.881Z,99299.13
2022-09-15T13:35:33.623Z,99312.03
2022-09-15T13:39:16.608Z,99336.50
2022-09-15T13:42:45.141Z,99339.97
2022-09-15T13:46:12.649Z,99307.31
2022-09-15T13:49:50.669Z,99322.53
2022-09-15T13:53:17.891Z,99305.34
2022-09-15T13:56:35.636Z,99301.81
2022-09-15T13:59:50.598Z,99320.16
2022-09-15T14:02:57.929Z,99308.84
2022-09-15T14:06:27.647Z,99289.34
2022-09-15T14:09:38.682Z,99290.19
2022-09-15T14:13:05.640Z,99299.81
2022-09-15T14:16:22.794Z,99303.75
2022-09-15T14:19:42.635Z,99278.28
2022-09-15T14:22:57.636Z,99274.88
2022-09-15T14:26:01.265Z,99303.12
2022-09-15T14:29:25.692Z,99282.25
2022-09-15T14:32:45.665Z,99292.69
2022-09-15T14:35:54.719Z,99309.50
2022-09-15T14:39:19.691Z,99326.94
2022-09-15T14:42:35.015Z,99346.00
2022-09-15T14:46:02.974Z,99348.25
2022-09-15T14:49:15.149Z,99329.19
2022-09-15T14:52:32.619Z,99339.00
2022-09-15T14:56:04.357Z,99324.81
2022-09-15T14:59:28.698Z,99344.22
2022-09-15T15:02:57.635Z,99355.22
2022-09-15T15:06:30.083Z,99359.75
2022-09-15T15:09:51.686Z,99354.19
2022-09-15T15:13:05.877Z,99339.69
2022-09-15T15:16:34.709Z,99343.97
2022-09-15T15:19:53.894Z,99358.78
2022-09-15T15:23:11.896Z,99352.16
2022-09-15T15:26:39.675Z,99332.50
2022-09-15T15:29:54.701Z,99304.91
2022-09-15T15:33:19.552Z,99313.31
2022-09-15T15:36:36.655Z,99299.56
2022-09-15T15:39:38.575Z,99335.22
2022-09-15T15:43:01.732Z,99357.97
2022-09-15T15:46:16.739Z,99344.09
2022-09-15T15:49:26.671Z,99347.53
2022-09-15T15:52:35.391Z,99347.41
2022-09-15T15:55:47.674Z,99331.66
2022-09-15T15:59:02.666Z,99318.84
2022-09-15T16:02:13.159Z,99318.84
2022-09-15T16:05:21.746Z,99317.44
2022-09-15T16:08:40.711Z,99317.09
2022-09-15T16:15:16.725Z,99294.09
2022-09-15T16:18:25.428Z,99278.94
2022-09-15T16:21:45.734Z,99273.00
2022-09-15T16:24:47.639Z,99259.59
2022-09-15T16:28:02.745Z,99248.59
2022-09-15T16:31:04.636Z,99248.72
2022-09-15T16:34:22.755Z,99249.81
2022-09-15T16:37:31.315Z,99250.00
2022-09-15T16:40:40.699Z,99261.16
2022-09-15T16:43:49.657Z,99262.13
2022-09-15T16:47:04.944Z,99260.56
2022-09-15T16:50:07.496Z,99272.78
2022-09-15T16:53:25.760Z,99284.75
2022-09-15T16:56:34.419Z,99295.50
2022-09-15T16:59:42.713Z,99288.56
2022-09-15T17:02:51.346Z,99291.16
2022-09-15T17:06:01.823Z,99294.94
2022-09-15T17:09:10.487Z,99300.37
2022-09-15T17:12:31.760Z,99303.94
2022-09-15T17:15:42.772Z,99307.16
2022-09-15T17:18:57.736Z,99301.22
2022-09-15T17:21:59.763Z,99306.53
2022-09-15T17:25:32.728Z,99302.53
2022-09-15T17:28:47.807Z,99298.59
2022-09-15T17:31:55.739Z,99293.63
2022-09-15T17:35:21.296Z,99279.53
2022-09-15T17:38:35.798Z,99286.41
2022-09-15T17:41:37.835Z,99279.91
2022-09-15T17:44:52.730Z,99270.91
2022-09-15T17:48:03.444Z,99267.56
2022-09-15T17:51:13.754Z,99280.38
2022-09-15T17:54:23.147Z,99274.09
2022-09-15T17:57:37.743Z,99282.25
2022-09-15T18:00:48.748Z,99275.50
2022-09-15T18:04:03.754Z,99274.47
2022-09-15T18:07:15.785Z,99283.69
2022-09-15T18:10:31.847Z,99278.03
2022-09-15T18:13:47.092Z,99280.50
2022-09-15T18:16:55.807Z,99283.81
2022-09-15T18:20:11.772Z,99295.88
2022-09-15T18:23:29.842Z,99292.22
2022-09-15T18:26:31.743Z,99294.38
2022-09-15T18:29:47.770Z,99307.34
2022-09-15T18:32:57.177Z,99308.91
2022-09-15T18:36:05.780Z,99306.78
2022-09-15T18:39:20.778Z,99309.41
2022-09-15T18:42:22.728Z,99300.00
2022-09-15T18:45:37.801Z,99308.88
2022-09-15T18:48:52.824Z,99316.66
2022-09-15T18:52:00.817Z,99319.75
2022-09-15T18:55:14.211Z,99306.34
2022-09-15T18:58:28.803Z,99313.94
2022-09-15T19:01:37.627Z,99316.88
2022-09-15T19:04:48.776Z,99324.22
2022-09-15T19:08:03.824Z,99328.25
2022-09-15T19:11:25.828Z,99334.53
2022-09-15T19:14:35.849Z,99333.22
2022-09-15T19:17:44.982Z,99338.19
2022-09-15T19:20:54.772Z,99331.09
2022-09-15T19:24:03.536Z,99327.09
2022-09-15T19:27:13.805Z,99333.22
2022-09-15T19:30:22.617Z,99322.09
2022-09-15T19:33:37.853Z,99335.47
2022-09-15T19:36:39.606Z,99350.16
2022-09-15T19:39:55.832Z,99352.63
2022-09-15T19:42:57.723Z,99349.91
2022-09-15T19:46:23.940Z,99345.44
2022-09-15T19:49:32.672Z,99346.63
2022-09-15T19:52:41.823Z,99348.19
2022-09-15T19:55:52.075Z,99352.81
2022-09-15T19:59:06.808Z,99359.09
2022-09-15T20:02:16.940Z,99364.16
2022-09-15T20:05:25.448Z,99361.28
2022-09-15T20:08:33.849Z,99351.47
2022-09-15T20:11:42.520Z,99364.72
2022-09-15T20:15:03.839Z,99367.09
2022-09-15T20:18:12.924Z,99360.22
2022-09-15T20:21:49.181Z,99375.94
2022-09-15T20:24:58.476Z,99376.19
2022-09-15T20:28:06.928Z,99382.47
2022-09-15T20:31:18.351Z,99389.78
2022-09-15T20:34:32.904Z,99383.53
2022-09-15T20:37:40.852Z,99381.03
2022-09-15T20:40:59.880Z,99385.41
2022-09-15T20:44:15.871Z,99387.06
2022-09-15T20:47:17.943Z,99407.94
2022-09-15T20:50:33.896Z,99403.91
2022-09-15T20:53:36.138Z,99419.53
2022-09-15T20:56:50.926Z,99425.72
2022-09-15T21:00:05.918Z,99428.00
2022-09-15T21:03:17.852Z,99425.28
2022-09-15T21:06:34.876Z,99417.78
2022-09-15T21:09:43.955Z,99426.56
2022-09-15T21:12:51.902Z,99426.78
2022-09-15T21:16:02.451Z,99427.38
2022-09-15T21:19:10.919Z,99428.53
2022-09-15T21:22:19.617Z,99437.09
2022-09-15T21:25:33.921Z,99428.69
2022-09-15T21:28:42.890Z,99420.75
2022-09-15T21:31:51.547Z,99419.44
2022-09-15T21:35:06.875Z,99428.91
2022-09-15T21:38:08.693Z,99417.13
2022-09-15T21:41:25.926Z,99417.34
2022-09-15T21:44:33.935Z,99428.44
2022-09-15T21:47:48.900Z,99421.94
2022-09-15T21:50:57.752Z,99425.12
2022-09-15T21:54:06.946Z,99434.38
2022-09-15T21:57:15.533Z,99448.81
2022-09-15T22:00:30.948Z,99455.31
2022-09-15T22:03:32.666Z,99482.16
2022-09-15T22:06:47.945Z,99476.72
2022-09-15T22:09:57.852Z,99488.06
2022-09-15T22:13:13.889Z,99489.81
2022-09-15T22:16:30.973Z,99494.06
2022-09-15T22:19:38.923Z,99488.84
2022-09-15T22:22:53.894Z,99497.03
2022-09-15T22:26:04.605Z,99495.12
2022-09-15T22:29:13.892Z,99498.53
2022-09-15T22:32:28.916Z,99494.97
2022-09-15T22:35:37.485Z,99496.28
2022-09-15T22:38:45.925Z,99503.97
2022-09-15T22:42:00.923Z,99505.25
2022-09-15T22:45:17.971Z,99516.53
2022-09-15T22:48:19.719Z,99521.13
2022-09-15T22:51:34.917Z,99524.09
2022-09-15T22:54:37.041Z,99528.03
2022-09-15T22:57:55.013Z,99536.44
2022-09-15T23:01:13.004Z,99548.75
2022-09-15T23:04:15.704Z,99555.03
2022-09-15T23:07:29.945Z,99562.12
2022-09-15T23:10:38.495Z,99571.81
2022-09-15T23:13:53.933Z,99578.53
2022-09-15T23:17:02.548Z,99583.53
2022-09-15T23:20:11.946Z,99592.59
2022-09-15T23:23:20.580Z,99588.87
2022-09-15T23:26:34.952Z,99584.13
2022-09-15T23:29:36.817Z,99590.84
2022-09-15T23:32:51.993Z,99589.19
2022-09-15T23:36:10.965Z,99593.34
2022-09-15T23:39:18.979Z,99587.31
2022-09-15T23:42:34.007Z,99583.91
2022-09-15T23:45:36.117Z,99585.41
2022-09-15T23:48:50.980Z,99591.91
2022-09-15T23:51:59.857Z,99590.03
2022-09-15T23:55:08.001Z,99587.50
2022-09-15T23:58:23.995Z,99597.56
